sensor_id;sensor_type;location;lat;lon;timestamp;P1;durP1;ratioP1;P2;durP2;ratioP2
52942;SDS011;38809;53.300;6.614;2023-04-03T00:01:12;2.55;;;0.90;;
52942;SDS011;38809;53.300;6.614;2023-04-03T00:03:37;3.30;;;0.97;;
52942;SDS011;38809;53.300;6.614;2023-04-03T00:06:03;2.37;;;0.83;;
52942;SDS011;38809;53.300;6.614;2023-04-03T00:08:31;1.83;;;0.80;;
52942;SDS011;38809;53.300;6.614;2023-04-03T00:10:57;2.13;;;0.60;;
52942;SDS011;38809;53.300;6.614;2023-04-03T00:13:23;2.72;;;0.80;;
52942;SDS011;38809;53.300;6.614;2023-04-03T00:15:50;1.77;;;0.70;;
52942;SDS011;38809;53.300;6.614;2023-04-03T00:18:17;2.33;;;0.77;;
52942;SDS011;38809;53.300;6.614;2023-04-03T00:20:43;5.07;;;1.25;;
52942;SDS011;38809;53.300;6.614;2023-04-03T00:23:09;2.90;;;1.05;;
52942;SDS011;38809;53.300;6.614;2023-04-03T00:25:35;1.83;;;0.90;;
52942;SDS011;38809;53.300;6.614;2023-04-03T00:28:01;3.05;;;1.00;;
52942;SDS011;38809;53.300;6.614;2023-04-03T00:30:27;1.52;;;0.75;;
52942;SDS011;38809;53.300;6.614;2023-04-03T00:32:53;2.00;;;0.80;;
52942;SDS011;38809;53.300;6.614;2023-04-03T00:35:19;1.60;;;0.80;;
52942;SDS011;38809;53.300;6.614;2023-04-03T00:37:46;1.70;;;0.70;;
52942;SDS011;38809;53.300;6.614;2023-04-03T00:40:13;1.45;;;0.63;;
52942;SDS011;38809;53.300;6.614;2023-04-03T00:42:41;1.33;;;0.63;;
52942;SDS011;38809;53.300;6.614;2023-04-03T00:47:42;2.92;;;0.85;;
52942;SDS011;38809;53.300;6.614;2023-04-03T00:50:08;2.20;;;0.80;;
52942;SDS011;38809;53.300;6.614;2023-04-03T00:52:34;3.00;;;1.20;;
52942;SDS011;38809;53.300;6.614;2023-04-03T00:55:04;2.40;;;0.93;;
52942;SDS011;38809;53.300;6.614;2023-04-03T00:57:32;2.72;;;0.90;;
52942;SDS011;38809;53.300;6.614;2023-04-03T01:00:04;2.92;;;0.80;;
52942;SDS011;38809;53.300;6.614;2023-04-03T01:02:34;3.33;;;0.80;;
52942;SDS011;38809;53.300;6.614;2023-04-03T01:05:00;3.88;;;1.00;;
52942;SDS011;38809;53.300;6.614;2023-04-03T01:07:27;3.45;;;0.80;;
52942;SDS011;38809;53.300;6.614;2023-04-03T01:09:56;2.08;;;0.70;;
52942;SDS011;38809;53.300;6.614;2023-04-03T01:15:02;2.50;;;0.95;;
52942;SDS011;38809;53.300;6.614;2023-04-03T01:28:11;2.45;;;1.08;;
52942;SDS011;38809;53.300;6.614;2023-04-03T01:30:53;5.05;;;1.05;;
52942;SDS011;38809;53.300;6.614;2023-04-03T01:33:31;3.30;;;1.02;;
52942;SDS011;38809;53.300;6.614;2023-04-03T01:35:57;3.30;;;1.42;;
52942;SDS011;38809;53.300;6.614;2023-04-03T01:38:23;3.13;;;1.10;;
52942;SDS011;38809;53.300;6.614;2023-04-03T01:40:49;2.92;;;1.05;;
52942;SDS011;38809;53.300;6.614;2023-04-03T01:43:15;3.63;;;1.00;;
52942;SDS011;38809;53.300;6.614;2023-04-03T01:45:40;3.33;;;1.10;;
52942;SDS011;38809;53.300;6.614;2023-04-03T01:48:06;2.63;;;1.27;;
52942;SDS011;38809;53.300;6.614;2023-04-03T01:50:32;2.40;;;1.10;;
52942;SDS011;38809;53.300;6.614;2023-04-03T01:52:57;3.45;;;1.20;;
52942;SDS011;38809;53.300;6.614;2023-04-03T01:55:23;2.60;;;1.20;;
52942;SDS011;38809;53.300;6.614;2023-04-03T01:57:49;3.65;;;1.58;;
52942;SDS011;38809;53.300;6.614;2023-04-03T02:00:14;3.00;;;1.30;;
52942;SDS011;38809;53.300;6.614;2023-04-03T02:05:07;3.30;;;1.20;;
52942;SDS011;38809;53.300;6.614;2023-04-03T02:07:33;2.40;;;0.98;;
52942;SDS011;38809;53.300;6.614;2023-04-03T02:09:58;3.53;;;1.27;;
52942;SDS011;38809;53.300;6.614;2023-04-03T02:12:24;1.90;;;1.05;;
52942;SDS011;38809;53.300;6.614;2023-04-03T02:14:50;2.97;;;1.00;;
52942;SDS011;38809;53.300;6.614;2023-04-03T02:17:15;2.77;;;0.97;;
52942;SDS011;38809;53.300;6.614;2023-04-03T02:19:41;3.73;;;0.93;;
52942;SDS011;38809;53.300;6.614;2023-04-03T02:22:07;2.60;;;0.90;;
52942;SDS011;38809;53.300;6.614;2023-04-03T02:24:32;2.97;;;1.10;;
52942;SDS011;38809;53.300;6.614;2023-04-03T02:26:58;4.30;;;1.27;;
52942;SDS011;38809;53.300;6.614;2023-04-03T02:29:24;4.35;;;1.80;;
52942;SDS011;38809;53.300;6.614;2023-04-03T02:31:50;3.10;;;1.10;;
52942;SDS011;38809;53.300;6.614;2023-04-03T02:34:16;2.95;;;0.98;;
52942;SDS011;38809;53.300;6.614;2023-04-03T02:36:42;3.33;;;1.23;;
52942;SDS011;38809;53.300;6.614;2023-04-03T02:39:08;3.45;;;1.10;;
52942;SDS011;38809;53.300;6.614;2023-04-03T02:44:04;2.72;;;0.90;;
52942;SDS011;38809;53.300;6.614;2023-04-03T02:46:31;3.03;;;1.13;;
52942;SDS011;38809;53.300;6.614;2023-04-03T02:51:23;2.65;;;1.00;;
52942;SDS011;38809;53.300;6.614;2023-04-03T02:53:49;2.83;;;1.05;;
52942;SDS011;38809;53.300;6.614;2023-04-03T02:56:15;4.88;;;1.00;;
52942;SDS011;38809;53.300;6.614;2023-04-03T02:58:43;3.38;;;1.30;;
52942;SDS011;38809;53.300;6.614;2023-04-03T03:01:09;2.50;;;1.20;;
52942;SDS011;38809;53.300;6.614;2023-04-03T03:06:05;3.13;;;1.10;;
52942;SDS011;38809;53.300;6.614;2023-04-03T03:08:32;6.30;;;1.10;;
52942;SDS011;38809;53.300;6.614;2023-04-03T03:10:58;5.70;;;1.60;;
52942;SDS011;38809;53.300;6.614;2023-04-03T03:13:24;6.05;;;1.35;;
52942;SDS011;38809;53.300;6.614;2023-04-03T03:15:50;1.98;;;1.15;;
52942;SDS011;38809;53.300;6.614;2023-04-03T03:18:16;2.58;;;1.10;;
52942;SDS011;38809;53.300;6.614;2023-04-03T03:20:42;2.90;;;1.15;;
52942;SDS011;38809;53.300;6.614;2023-04-03T03:23:08;3.87;;;1.30;;
52942;SDS011;38809;53.300;6.614;2023-04-03T03:25:37;4.45;;;1.20;;
52942;SDS011;38809;53.300;6.614;2023-04-03T03:28:04;3.78;;;1.80;;
52942;SDS011;38809;53.300;6.614;2023-04-03T03:30:30;2.95;;;1.08;;
52942;SDS011;38809;53.300;6.614;2023-04-03T03:32:56;3.30;;;1.10;;
52942;SDS011;38809;53.300;6.614;2023-04-03T03:35:21;5.97;;;1.77;;
52942;SDS011;38809;53.300;6.614;2023-04-03T03:37:47;2.53;;;1.50;;
52942;SDS011;38809;53.300;6.614;2023-04-03T03:40:13;3.57;;;1.10;;
52942;SDS011;38809;53.300;6.614;2023-04-03T03:42:38;3.67;;;1.17;;
52942;SDS011;38809;53.300;6.614;2023-04-03T03:45:04;3.65;;;1.40;;
52942;SDS011;38809;53.300;6.614;2023-04-03T03:47:31;2.85;;;1.20;;
52942;SDS011;38809;53.300;6.614;2023-04-03T03:49:56;5.13;;;1.20;;
52942;SDS011;38809;53.300;6.614;2023-04-03T03:52:22;2.83;;;1.10;;
52942;SDS011;38809;53.300;6.614;2023-04-03T03:54:48;3.10;;;1.30;;
52942;SDS011;38809;53.300;6.614;2023-04-03T03:57:14;2.77;;;1.10;;
52942;SDS011;38809;53.300;6.614;2023-04-03T04:02:07;4.93;;;1.48;;
52942;SDS011;38809;53.300;6.614;2023-04-03T04:04:33;4.20;;;1.58;;
52942;SDS011;38809;53.300;6.614;2023-04-03T04:06:58;5.13;;;1.23;;
52942;SDS011;38809;53.300;6.614;2023-04-03T04:11:51;4.82;;;1.50;;
52942;SDS011;38809;53.300;6.614;2023-04-03T04:14:17;4.30;;;1.43;;
52942;SDS011;38809;53.300;6.614;2023-04-03T04:16:42;4.40;;;1.63;;
52942;SDS011;38809;53.300;6.614;2023-04-03T04:19:08;3.08;;;1.45;;
52942;SDS011;38809;53.300;6.614;2023-04-03T04:21:34;4.57;;;1.70;;
52942;SDS011;38809;53.300;6.614;2023-04-03T04:24:00;7.25;;;1.42;;
52942;SDS011;38809;53.300;6.614;2023-04-03T04:26:26;7.57;;;2.10;;
52942;SDS011;38809;53.300;6.614;2023-04-03T04:28:51;2.73;;;1.30;;
52942;SDS011;38809;53.300;6.614;2023-04-03T04:31:17;4.50;;;1.77;;
52942;SDS011;38809;53.300;6.614;2023-04-03T04:33:43;4.10;;;1.40;;
52942;SDS011;38809;53.300;6.614;2023-04-03T04:36:08;3.83;;;1.37;;
52942;SDS011;38809;53.300;6.614;2023-04-03T04:38:34;4.30;;;1.30;;
52942;SDS011;38809;53.300;6.614;2023-04-03T04:41:00;3.65;;;1.55;;
52942;SDS011;38809;53.300;6.614;2023-04-03T04:43:26;8.77;;;1.98;;
52942;SDS011;38809;53.300;6.614;2023-04-03T04:46:04;4.20;;;1.80;;
52942;SDS011;38809;53.300;6.614;2023-04-03T04:48:32;5.25;;;1.50;;
52942;SDS011;38809;53.300;6.614;2023-04-03T04:50:59;7.10;;;1.75;;
52942;SDS011;38809;53.300;6.614;2023-04-03T04:53:25;4.85;;;1.42;;
52942;SDS011;38809;53.300;6.614;2023-04-03T04:55:51;5.68;;;1.23;;
52942;SDS011;38809;53.300;6.614;2023-04-03T05:00:43;3.38;;;1.50;;
52942;SDS011;38809;53.300;6.614;2023-04-03T05:03:09;3.42;;;1.50;;
52942;SDS011;38809;53.300;6.614;2023-04-03T05:05:35;6.13;;;2.13;;
52942;SDS011;38809;53.300;6.614;2023-04-03T05:08:01;4.95;;;1.60;;
52942;SDS011;38809;53.300;6.614;2023-04-03T05:10:28;2.42;;;1.00;;
52942;SDS011;38809;53.300;6.614;2023-04-03T05:12:53;3.97;;;1.52;;
52942;SDS011;38809;53.300;6.614;2023-04-03T05:15:19;3.87;;;1.23;;
52942;SDS011;38809;53.300;6.614;2023-04-03T05:17:45;3.00;;;1.20;;
52942;SDS011;38809;53.300;6.614;2023-04-03T05:20:11;3.47;;;1.58;;
52942;SDS011;38809;53.300;6.614;2023-04-03T05:22:37;3.72;;;1.70;;
52942;SDS011;38809;53.300;6.614;2023-04-03T05:25:03;4.90;;;1.73;;
52942;SDS011;38809;53.300;6.614;2023-04-03T05:27:29;6.03;;;1.70;;
52942;SDS011;38809;53.300;6.614;2023-04-03T05:29:54;3.20;;;1.57;;
52942;SDS011;38809;53.300;6.614;2023-04-03T05:32:21;6.43;;;1.43;;
52942;SDS011;38809;53.300;6.614;2023-04-03T05:34:47;3.33;;;1.38;;
52942;SDS011;38809;53.300;6.614;2023-04-03T05:37:13;2.97;;;1.30;;
52942;SDS011;38809;53.300;6.614;2023-04-03T05:39:39;2.42;;;1.27;;
52942;SDS011;38809;53.300;6.614;2023-04-03T05:42:06;4.13;;;1.70;;
52942;SDS011;38809;53.300;6.614;2023-04-03T05:44:33;3.30;;;1.60;;
52942;SDS011;38809;53.300;6.614;2023-04-03T05:46:59;5.20;;;1.77;;
52942;SDS011;38809;53.300;6.614;2023-04-03T05:49:24;3.83;;;1.40;;
52942;SDS011;38809;53.300;6.614;2023-04-03T05:51:50;3.10;;;1.20;;
52942;SDS011;38809;53.300;6.614;2023-04-03T05:54:20;3.70;;;1.38;;
52942;SDS011;38809;53.300;6.614;2023-04-03T05:56:49;2.17;;;1.23;;
52942;SDS011;38809;53.300;6.614;2023-04-03T06:01:41;2.42;;;1.08;;
52942;SDS011;38809;53.300;6.614;2023-04-03T06:04:06;3.13;;;1.25;;
52942;SDS011;38809;53.300;6.614;2023-04-03T06:06:43;4.13;;;1.60;;
52942;SDS011;38809;53.300;6.614;2023-04-03T06:09:10;3.00;;;1.25;;
52942;SDS011;38809;53.300;6.614;2023-04-03T06:11:36;3.60;;;1.95;;
52942;SDS011;38809;53.300;6.614;2023-04-03T06:14:02;3.30;;;1.40;;
52942;SDS011;38809;53.300;6.614;2023-04-03T06:16:28;5.50;;;1.45;;
52942;SDS011;38809;53.300;6.614;2023-04-03T06:18:53;5.33;;;1.47;;
52942;SDS011;38809;53.300;6.614;2023-04-03T06:21:20;4.50;;;1.48;;
52942;SDS011;38809;53.300;6.614;2023-04-03T06:23:45;3.85;;;1.20;;
52942;SDS011;38809;53.300;6.614;2023-04-03T06:26:11;6.23;;;1.73;;
52942;SDS011;38809;53.300;6.614;2023-04-03T06:28:37;6.53;;;1.60;;
52942;SDS011;38809;53.300;6.614;2023-04-03T06:31:02;3.77;;;1.60;;
52942;SDS011;38809;53.300;6.614;2023-04-03T06:33:28;3.40;;;1.40;;
52942;SDS011;38809;53.300;6.614;2023-04-03T06:35:57;2.80;;;1.30;;
52942;SDS011;38809;53.300;6.614;2023-04-03T06:38:23;2.65;;;1.40;;
52942;SDS011;38809;53.300;6.614;2023-04-03T06:40:50;4.32;;;1.63;;
52942;SDS011;38809;53.300;6.614;2023-04-03T06:43:16;3.22;;;1.20;;
52942;SDS011;38809;53.300;6.614;2023-04-03T06:45:42;3.55;;;1.70;;
52942;SDS011;38809;53.300;6.614;2023-04-03T06:48:08;5.28;;;1.55;;
52942;SDS011;38809;53.300;6.614;2023-04-03T06:50:34;5.68;;;1.88;;
52942;SDS011;38809;53.300;6.614;2023-04-03T06:53:00;5.57;;;2.13;;
52942;SDS011;38809;53.300;6.614;2023-04-03T06:55:26;3.85;;;1.73;;
52942;SDS011;38809;53.300;6.614;2023-04-03T06:57:52;4.32;;;1.85;;
52942;SDS011;38809;53.300;6.614;2023-04-03T07:00:17;3.30;;;1.35;;
52942;SDS011;38809;53.300;6.614;2023-04-03T07:05:10;11.02;;;2.55;;
52942;SDS011;38809;53.300;6.614;2023-04-03T07:07:36;4.60;;;1.90;;
52942;SDS011;38809;53.300;6.614;2023-04-03T07:10:03;3.28;;;1.60;;
52942;SDS011;38809;53.300;6.614;2023-04-03T07:12:29;4.47;;;1.70;;
52942;SDS011;38809;53.300;6.614;2023-04-03T07:14:55;4.30;;;1.67;;
52942;SDS011;38809;53.300;6.614;2023-04-03T07:17:21;6.28;;;2.22;;
52942;SDS011;38809;53.300;6.614;2023-04-03T07:19:46;5.43;;;1.77;;
52942;SDS011;38809;53.300;6.614;2023-04-03T07:22:12;6.20;;;1.83;;
52942;SDS011;38809;53.300;6.614;2023-04-03T07:24:38;4.55;;;1.88;;
52942;SDS011;38809;53.300;6.614;2023-04-03T07:27:03;4.47;;;1.80;;
52942;SDS011;38809;53.300;6.614;2023-04-03T07:29:29;4.03;;;1.67;;
52942;SDS011;38809;53.300;6.614;2023-04-03T07:31:55;6.53;;;1.80;;
52942;SDS011;38809;53.300;6.614;2023-04-03T07:34:21;3.67;;;1.57;;
52942;SDS011;38809;53.300;6.614;2023-04-03T07:36:46;3.95;;;1.50;;
52942;SDS011;38809;53.300;6.614;2023-04-03T07:39:12;5.43;;;2.00;;
52942;SDS011;38809;53.300;6.614;2023-04-03T07:41:38;3.72;;;1.50;;
52942;SDS011;38809;53.300;6.614;2023-04-03T07:44:04;2.80;;;1.20;;
52942;SDS011;38809;53.300;6.614;2023-04-03T07:46:30;2.65;;;1.13;;
52942;SDS011;38809;53.300;6.614;2023-04-03T07:48:56;2.70;;;1.38;;
52942;SDS011;38809;53.300;6.614;2023-04-03T07:51:22;2.22;;;1.15;;
52942;SDS011;38809;53.300;6.614;2023-04-03T07:53:49;4.32;;;1.67;;
52942;SDS011;38809;53.300;6.614;2023-04-03T07:56:16;4.78;;;1.42;;
52942;SDS011;38809;53.300;6.614;2023-04-03T07:58:42;3.33;;;1.40;;
52942;SDS011;38809;53.300;6.614;2023-04-03T08:01:08;2.93;;;1.30;;
52942;SDS011;38809;53.300;6.614;2023-04-03T08:03:33;4.47;;;1.60;;
52942;SDS011;38809;53.300;6.614;2023-04-03T08:06:03;3.93;;;1.47;;
52942;SDS011;38809;53.300;6.614;2023-04-03T08:08:30;3.08;;;1.20;;
52942;SDS011;38809;53.300;6.614;2023-04-03T08:10:57;3.15;;;1.35;;
52942;SDS011;38809;53.300;6.614;2023-04-03T08:13:23;5.82;;;1.52;;
52942;SDS011;38809;53.300;6.614;2023-04-03T08:15:49;2.90;;;1.50;;
52942;SDS011;38809;53.300;6.614;2023-04-03T08:18:16;2.63;;;1.27;;
52942;SDS011;38809;53.300;6.614;2023-04-03T08:20:43;2.42;;;1.00;;
52942;SDS011;38809;53.300;6.614;2023-04-03T08:25:39;4.13;;;1.50;;
52942;SDS011;38809;53.300;6.614;2023-04-03T08:28:06;2.95;;;0.82;;
52942;SDS011;38809;53.300;6.614;2023-04-03T08:30:32;4.78;;;0.93;;
52942;SDS011;38809;53.300;6.614;2023-04-03T08:32:59;3.03;;;1.00;;
52942;SDS011;38809;53.300;6.614;2023-04-03T08:35:26;2.92;;;1.10;;
52942;SDS011;38809;53.300;6.614;2023-04-03T08:37:52;2.97;;;1.10;;
52942;SDS011;38809;53.300;6.614;2023-04-03T08:40:17;3.17;;;1.20;;
52942;SDS011;38809;53.300;6.614;2023-04-03T08:48:01;5.75;;;1.42;;
52942;SDS011;38809;53.300;6.614;2023-04-03T08:53:29;3.78;;;1.10;;
52942;SDS011;38809;53.300;6.614;2023-04-03T08:55:58;2.40;;;1.10;;
52942;SDS011;38809;53.300;6.614;2023-04-03T09:01:23;3.80;;;1.25;;
52942;SDS011;38809;53.300;6.614;2023-04-03T09:04:09;2.00;;;1.00;;
52942;SDS011;38809;53.300;6.614;2023-04-03T09:06:41;4.15;;;1.25;;
52942;SDS011;38809;53.300;6.614;2023-04-03T09:22:36;3.10;;;1.10;;
52942;SDS011;38809;53.300;6.614;2023-04-03T09:25:47;3.45;;;1.02;;
52942;SDS011;38809;53.300;6.614;2023-04-03T09:27:59;3.65;;;1.17;;
52942;SDS011;38809;53.300;6.614;2023-04-03T09:30:26;1.98;;;0.85;;
52942;SDS011;38809;53.300;6.614;2023-04-03T09:32:53;3.70;;;0.93;;
52942;SDS011;38809;53.300;6.614;2023-04-03T09:37:59;3.33;;;1.10;;
52942;SDS011;38809;53.300;6.614;2023-04-03T09:40:39;2.10;;;0.68;;
52942;SDS011;38809;53.300;6.614;2023-04-03T09:45:51;2.00;;;0.68;;
52942;SDS011;38809;53.300;6.614;2023-04-03T09:48:18;3.28;;;0.70;;
52942;SDS011;38809;53.300;6.614;2023-04-03T09:53:31;2.80;;;0.77;;
52942;SDS011;38809;53.300;6.614;2023-04-03T09:58:44;2.63;;;0.60;;
52942;SDS011;38809;53.300;6.614;2023-04-03T10:04:03;1.33;;;0.68;;
52942;SDS011;38809;53.300;6.614;2023-04-03T10:06:30;1.90;;;0.73;;
52942;SDS011;38809;53.300;6.614;2023-04-03T10:08:59;1.50;;;0.70;;
52942;SDS011;38809;53.300;6.614;2023-04-03T10:11:29;2.90;;;0.80;;
52942;SDS011;38809;53.300;6.614;2023-04-03T10:13:59;1.73;;;0.65;;
52942;SDS011;38809;53.300;6.614;2023-04-03T10:16:32;1.65;;;0.80;;
52942;SDS011;38809;53.300;6.614;2023-04-03T10:21:46;2.55;;;1.25;;
52942;SDS011;38809;53.300;6.614;2023-04-03T10:48:40;1.58;;;0.70;;
52942;SDS011;38809;53.300;6.614;2023-04-03T10:51:10;3.13;;;1.10;;
52942;SDS011;38809;53.300;6.614;2023-04-03T10:56:44;3.28;;;0.98;;
52942;SDS011;38809;53.300;6.614;2023-04-03T11:01:44;2.80;;;0.82;;
52942;SDS011;38809;53.300;6.614;2023-04-03T11:04:13;2.10;;;0.60;;
52942;SDS011;38809;53.300;6.614;2023-04-03T11:06:43;4.63;;;0.80;;
52942;SDS011;38809;53.300;6.614;2023-04-03T11:11:49;2.10;;;0.70;;
52942;SDS011;38809;53.300;6.614;2023-04-03T11:14:28;1.38;;;0.52;;
52942;SDS011;38809;53.300;6.614;2023-04-03T11:17:39;1.05;;;0.47;;
52942;SDS011;38809;53.300;6.614;2023-04-03T11:27:55;1.85;;;0.68;;
52942;SDS011;38809;53.300;6.614;2023-04-03T11:36:25;0.95;;;0.50;;
52942;SDS011;38809;53.300;6.614;2023-04-03T11:38:52;1.00;;;0.50;;
52942;SDS011;38809;53.300;6.614;2023-04-03T11:41:24;1.95;;;0.60;;
52942;SDS011;38809;53.300;6.614;2023-04-03T12:24:13;1.73;;;0.60;;
52942;SDS011;38809;53.300;6.614;2023-04-03T12:35:14;2.50;;;0.90;;
52942;SDS011;38809;53.300;6.614;2023-04-03T12:44:13;2.10;;;0.77;;
52942;SDS011;38809;53.300;6.614;2023-04-03T12:46:51;1.98;;;0.70;;
52942;SDS011;38809;53.300;6.614;2023-04-03T12:51:50;1.58;;;0.68;;
52942;SDS011;38809;53.300;6.614;2023-04-03T12:56:44;3.63;;;0.98;;
52942;SDS011;38809;53.300;6.614;2023-04-03T13:01:54;1.60;;;0.55;;
52942;SDS011;38809;53.300;6.614;2023-04-03T13:04:21;3.40;;;0.98;;
52942;SDS011;38809;53.300;6.614;2023-04-03T13:06:47;4.68;;;0.90;;
52942;SDS011;38809;53.300;6.614;2023-04-03T13:09:23;4.47;;;1.08;;
52942;SDS011;38809;53.300;6.614;2023-04-03T13:11:58;2.47;;;1.10;;
52942;SDS011;38809;53.300;6.614;2023-04-03T13:14:28;2.63;;;0.80;;
52942;SDS011;38809;53.300;6.614;2023-04-03T13:16:55;2.63;;;0.73;;
52942;SDS011;38809;53.300;6.614;2023-04-03T13:19:29;1.80;;;0.80;;
52942;SDS011;38809;53.300;6.614;2023-04-03T13:21:57;2.85;;;1.23;;
52942;SDS011;38809;53.300;6.614;2023-04-03T13:24:28;4.35;;;1.45;;
52942;SDS011;38809;53.300;6.614;2023-04-03T13:26:55;2.55;;;1.10;;
52942;SDS011;38809;53.300;6.614;2023-04-03T13:29:25;3.85;;;1.30;;
52942;SDS011;38809;53.300;6.614;2023-04-03T13:31:58;3.47;;;1.05;;
52942;SDS011;38809;53.300;6.614;2023-04-03T13:34:26;2.45;;;0.88;;
52942;SDS011;38809;53.300;6.614;2023-04-03T13:39:28;1.95;;;0.90;;
52942;SDS011;38809;53.300;6.614;2023-04-03T13:41:56;3.13;;;1.10;;
52942;SDS011;38809;53.300;6.614;2023-04-03T13:44:29;3.20;;;1.00;;
52942;SDS011;38809;53.300;6.614;2023-04-03T13:52:24;2.50;;;0.90;;
52942;SDS011;38809;53.300;6.614;2023-04-03T13:54:58;3.28;;;1.02;;
52942;SDS011;38809;53.300;6.614;2023-04-03T13:57:26;3.58;;;0.90;;
52942;SDS011;38809;53.300;6.614;2023-04-03T13:59:53;1.83;;;0.80;;
52942;SDS011;38809;53.300;6.614;2023-04-03T14:02:21;1.80;;;0.70;;
52942;SDS011;38809;53.300;6.614;2023-04-03T14:04:58;1.77;;;0.80;;
52942;SDS011;38809;53.300;6.614;2023-04-03T14:07:27;3.33;;;1.17;;
52942;SDS011;38809;53.300;6.614;2023-04-03T14:09:56;2.00;;;0.80;;
52942;SDS011;38809;53.300;6.614;2023-04-03T14:12:26;2.05;;;0.70;;
52942;SDS011;38809;53.300;6.614;2023-04-03T14:14:56;2.05;;;0.63;;
52942;SDS011;38809;53.300;6.614;2023-04-03T14:17:23;2.10;;;0.77;;
52942;SDS011;38809;53.300;6.614;2023-04-03T14:19:50;2.28;;;0.70;;
52942;SDS011;38809;53.300;6.614;2023-04-03T14:22:19;3.00;;;0.80;;
52942;SDS011;38809;53.300;6.614;2023-04-03T14:24:48;1.60;;;0.70;;
52942;SDS011;38809;53.300;6.614;2023-04-03T14:29:41;1.95;;;0.90;;
52942;SDS011;38809;53.300;6.614;2023-04-03T14:32:07;2.30;;;0.90;;
52942;SDS011;38809;53.300;6.614;2023-04-03T14:34:32;1.92;;;0.52;;
52942;SDS011;38809;53.300;6.614;2023-04-03T14:36:58;1.77;;;0.70;;
52942;SDS011;38809;53.300;6.614;2023-04-03T14:39:23;3.20;;;0.70;;
52942;SDS011;38809;53.300;6.614;2023-04-03T14:41:49;2.70;;;0.70;;
52942;SDS011;38809;53.300;6.614;2023-04-03T14:44:15;1.40;;;0.63;;
52942;SDS011;38809;53.300;6.614;2023-04-03T14:46:42;1.45;;;0.60;;
52942;SDS011;38809;53.300;6.614;2023-04-03T14:49:14;1.20;;;0.40;;
52942;SDS011;38809;53.300;6.614;2023-04-03T14:51:43;1.50;;;0.63;;
52942;SDS011;38809;53.300;6.614;2023-04-03T14:56:38;2.00;;;0.57;;
52942;SDS011;38809;53.300;6.614;2023-04-03T14:59:04;2.30;;;0.75;;
52942;SDS011;38809;53.300;6.614;2023-04-03T15:01:34;1.50;;;0.70;;
52942;SDS011;38809;53.300;6.614;2023-04-03T15:04:00;1.30;;;0.50;;
52942;SDS011;38809;53.300;6.614;2023-04-03T15:06:26;1.97;;;0.50;;
52942;SDS011;38809;53.300;6.614;2023-04-03T15:08:51;1.97;;;0.50;;
52942;SDS011;38809;53.300;6.614;2023-04-03T15:11:17;2.20;;;0.57;;
52942;SDS011;38809;53.300;6.614;2023-04-03T15:13:43;1.63;;;0.77;;
52942;SDS011;38809;53.300;6.614;2023-04-03T15:16:16;2.97;;;0.70;;
52942;SDS011;38809;53.300;6.614;2023-04-03T15:18:43;1.83;;;0.50;;
52942;SDS011;38809;53.300;6.614;2023-04-03T15:21:10;1.85;;;0.60;;
52942;SDS011;38809;53.300;6.614;2023-04-03T15:23:36;2.35;;;0.70;;
52942;SDS011;38809;53.300;6.614;2023-04-03T15:26:02;4.18;;;1.13;;
52942;SDS011;38809;53.300;6.614;2023-04-03T15:28:36;1.92;;;0.70;;
52942;SDS011;38809;53.300;6.614;2023-04-03T15:31:04;1.77;;;0.80;;
52942;SDS011;38809;53.300;6.614;2023-04-03T15:33:31;3.35;;;0.70;;
52942;SDS011;38809;53.300;6.614;2023-04-03T15:35:58;2.25;;;0.60;;
52942;SDS011;38809;53.300;6.614;2023-04-03T15:38:23;3.25;;;0.70;;
52942;SDS011;38809;53.300;6.614;2023-04-03T15:40:49;1.80;;;0.80;;
52942;SDS011;38809;53.300;6.614;2023-04-03T15:43:15;4.55;;;1.05;;
52942;SDS011;38809;53.300;6.614;2023-04-03T15:45:41;1.60;;;0.80;;
52942;SDS011;38809;53.300;6.614;2023-04-03T15:48:09;2.72;;;0.77;;
52942;SDS011;38809;53.300;6.614;2023-04-03T15:50:36;1.83;;;0.65;;
52942;SDS011;38809;53.300;6.614;2023-04-03T15:53:03;2.60;;;0.80;;
52942;SDS011;38809;53.300;6.614;2023-04-03T15:55:31;2.55;;;0.82;;
52942;SDS011;38809;53.300;6.614;2023-04-03T15:57:58;1.88;;;0.70;;
52942;SDS011;38809;53.300;6.614;2023-04-03T16:00:24;2.45;;;0.95;;
52942;SDS011;38809;53.300;6.614;2023-04-03T16:02:58;3.08;;;0.90;;
52942;SDS011;38809;53.300;6.614;2023-04-03T16:05:28;3.03;;;1.20;;
52942;SDS011;38809;53.300;6.614;2023-04-03T16:07:54;2.65;;;0.80;;
52942;SDS011;38809;53.300;6.614;2023-04-03T16:10:21;2.20;;;0.70;;
52942;SDS011;38809;53.300;6.614;2023-04-03T16:12:47;2.13;;;0.82;;
52942;SDS011;38809;53.300;6.614;2023-04-03T16:15:13;2.57;;;1.00;;
52942;SDS011;38809;53.300;6.614;2023-04-03T16:17:39;1.70;;;0.80;;
52942;SDS011;38809;53.300;6.614;2023-04-03T16:20:08;3.05;;;1.17;;
52942;SDS011;38809;53.300;6.614;2023-04-03T16:22:36;2.58;;;0.85;;
52942;SDS011;38809;53.300;6.614;2023-04-03T16:25:03;2.85;;;0.93;;
52942;SDS011;38809;53.300;6.614;2023-04-03T16:27:30;2.78;;;0.70;;
52942;SDS011;38809;53.300;6.614;2023-04-03T16:29:58;2.85;;;0.90;;
52942;SDS011;38809;53.300;6.614;2023-04-03T16:32:25;1.98;;;0.82;;
52942;SDS011;38809;53.300;6.614;2023-04-03T16:34:53;2.40;;;0.88;;
52942;SDS011;38809;53.300;6.614;2023-04-03T16:37:19;2.25;;;0.90;;
52942;SDS011;38809;53.300;6.614;2023-04-03T16:39:45;2.70;;;1.30;;
52942;SDS011;38809;53.300;6.614;2023-04-03T16:42:11;3.03;;;1.00;;
52942;SDS011;38809;53.300;6.614;2023-04-03T16:44:37;3.92;;;1.20;;
52942;SDS011;38809;53.300;6.614;2023-04-03T16:47:04;4.63;;;1.20;;
52942;SDS011;38809;53.300;6.614;2023-04-03T16:52:00;2.97;;;0.88;;
52942;SDS011;38809;53.300;6.614;2023-04-03T16:54:27;1.85;;;0.70;;
52942;SDS011;38809;53.300;6.614;2023-04-03T16:59:19;2.28;;;0.70;;
52942;SDS011;38809;53.300;6.614;2023-04-03T17:01:45;2.42;;;0.85;;
52942;SDS011;38809;53.300;6.614;2023-04-03T17:04:11;2.58;;;1.00;;
52942;SDS011;38809;53.300;6.614;2023-04-03T17:09:03;3.72;;;1.00;;
52942;SDS011;38809;53.300;6.614;2023-04-03T17:11:30;2.13;;;0.70;;
52942;SDS011;38809;53.300;6.614;2023-04-03T17:16:22;4.45;;;1.02;;
52942;SDS011;38809;53.300;6.614;2023-04-03T17:18:49;2.60;;;0.88;;
52942;SDS011;38809;53.300;6.614;2023-04-03T17:21:16;3.05;;;1.10;;
52942;SDS011;38809;53.300;6.614;2023-04-03T17:23:42;3.33;;;1.00;;
52942;SDS011;38809;53.300;6.614;2023-04-03T17:26:12;2.60;;;0.70;;
52942;SDS011;38809;53.300;6.614;2023-04-03T17:28:37;3.93;;;1.30;;
52942;SDS011;38809;53.300;6.614;2023-04-03T17:31:05;3.95;;;1.10;;
52942;SDS011;38809;53.300;6.614;2023-04-03T17:33:31;2.88;;;1.08;;
52942;SDS011;38809;53.300;6.614;2023-04-03T17:35:57;3.78;;;1.20;;
52942;SDS011;38809;53.300;6.614;2023-04-03T17:38:25;3.08;;;1.45;;
52942;SDS011;38809;53.300;6.614;2023-04-03T17:40:51;2.33;;;0.88;;
52942;SDS011;38809;53.300;6.614;2023-04-03T17:43:20;2.30;;;0.80;;
52942;SDS011;38809;53.300;6.614;2023-04-03T17:45:45;2.80;;;1.23;;
52942;SDS011;38809;53.300;6.614;2023-04-03T17:48:11;3.23;;;0.90;;
52942;SDS011;38809;53.300;6.614;2023-04-03T17:50:37;2.47;;;1.05;;
52942;SDS011;38809;53.300;6.614;2023-04-03T17:53:03;2.17;;;1.03;;
52942;SDS011;38809;53.300;6.614;2023-04-03T17:55:28;2.77;;;0.90;;
52942;SDS011;38809;53.300;6.614;2023-04-03T17:57:54;3.25;;;1.20;;
52942;SDS011;38809;53.300;6.614;2023-04-03T18:00:20;3.40;;;0.90;;
52942;SDS011;38809;53.300;6.614;2023-04-03T18:02:46;2.03;;;0.93;;
52942;SDS011;38809;53.300;6.614;2023-04-03T18:05:11;1.97;;;0.83;;
52942;SDS011;38809;53.300;6.614;2023-04-03T18:07:37;2.47;;;1.10;;
52942;SDS011;38809;53.300;6.614;2023-04-03T18:10:04;3.58;;;1.10;;
52942;SDS011;38809;53.300;6.614;2023-04-03T18:12:33;4.13;;;1.40;;
52942;SDS011;38809;53.300;6.614;2023-04-03T18:15:00;2.08;;;1.10;;
52942;SDS011;38809;53.300;6.614;2023-04-03T18:17:27;2.17;;;0.90;;
52942;SDS011;38809;53.300;6.614;2023-04-03T18:19:53;2.87;;;1.30;;
52942;SDS011;38809;53.300;6.614;2023-04-03T18:22:20;4.60;;;1.40;;